createdAt,value
2019-02-12T00:00:28.791Z,2.40
2019-02-12T00:02:57.430Z,2.40
2019-02-12T00:05:26.030Z,2.40
2019-02-12T00:07:54.585Z,2.30
2019-02-12T00:10:23.186Z,2.30
2019-02-12T00:12:51.744Z,2.20
2019-02-12T00:15:20.340Z,2.10
2019-02-12T00:17:48.904Z,2.10
2019-02-12T00:20:17.503Z,2.10
2019-02-12T00:22:46.060Z,2.10
2019-02-12T00:25:14.659Z,2.10
2019-02-12T00:27:43.608Z,2.10
2019-02-12T00:30:12.460Z,2.10
2019-02-12T00:32:41.041Z,1.80
2019-02-12T00:35:09.772Z,1.80
2019-02-12T00:37:38.332Z,1.90
2019-02-12T00:40:08.969Z,2.00
2019-02-12T00:42:37.591Z,2.00
2019-02-12T00:45:08.928Z,2.00
2019-02-12T00:47:37.514Z,1.90
2019-02-12T00:50:09.212Z,2.00
2019-02-12T00:52:37.847Z,1.90
2019-02-12T00:55:08.196Z,1.90
2019-02-12T00:57:36.756Z,2.00
2019-02-12T01:00:08.500Z,1.90
2019-02-12T01:02:37.301Z,2.00
2019-02-12T01:05:06.246Z,2.10
2019-02-12T01:07:34.797Z,2.00
2019-02-12T01:10:04.956Z,2.00
2019-02-12T01:12:33.507Z,2.10
2019-02-12T01:15:02.488Z,2.10
2019-02-12T01:17:31.045Z,2.20
2019-02-12T01:19:59.647Z,2.10
2019-02-12T01:22:28.216Z,2.10
2019-02-12T01:24:56.786Z,2.30
2019-02-12T01:27:25.384Z,2.30
2019-02-12T01:29:53.934Z,2.30
2019-02-12T01:32:22.536Z,2.40
2019-02-12T01:34:51.099Z,2.40
2019-02-12T01:37:19.688Z,2.50
2019-02-12T01:39:48.250Z,2.40
2019-02-12T01:42:16.845Z,2.50
2019-02-12T01:44:45.409Z,2.60
2019-02-12T01:47:14.011Z,2.60
2019-02-12T01:49:42.576Z,2.50
2019-02-12T01:52:11.186Z,2.50
2019-02-12T01:54:39.744Z,2.60
2019-02-12T01:57:08.343Z,2.50
2019-02-12T01:59:36.904Z,2.60
2019-02-12T02:02:05.506Z,2.70
2019-02-12T02:04:34.064Z,2.60
2019-02-12T02:07:02.674Z,2.50
2019-02-12T02:09:31.403Z,2.60
2019-02-12T02:12:00.013Z,2.50
2019-02-12T02:14:28.563Z,2.60
2019-02-12T02:16:57.173Z,2.70
2019-02-12T02:19:25.733Z,2.70
2019-02-12T02:21:54.339Z,2.60
2019-02-12T02:24:22.895Z,2.60
2019-02-12T02:26:51.508Z,2.60
2019-02-12T02:29:20.074Z,2.60
2019-02-12T02:31:48.733Z,2.50
2019-02-12T02:34:17.288Z,2.60
2019-02-12T02:36:45.880Z,2.60
2019-02-12T02:39:14.447Z,2.70
2019-02-12T02:41:43.072Z,2.80
2019-02-12T02:44:11.633Z,2.80
2019-02-12T02:46:40.235Z,2.80
2019-02-12T02:49:08.796Z,2.80
2019-02-12T02:51:37.392Z,2.70
2019-02-12T02:54:05.957Z,2.80
2019-02-12T02:56:34.556Z,2.80
2019-02-12T02:59:03.099Z,2.70
2019-02-12T03:01:31.724Z,2.70
2019-02-12T03:04:00.271Z,2.80
2019-02-12T03:06:28.889Z,2.90
2019-02-12T03:08:57.630Z,2.90
2019-02-12T03:11:26.266Z,3.00
2019-02-12T03:13:54.803Z,2.90
2019-02-12T03:16:23.361Z,2.70
2019-02-12T03:18:51.964Z,2.70
2019-02-12T03:21:20.529Z,2.70
2019-02-12T03:23:49.127Z,2.70
2019-02-12T03:26:17.687Z,2.70
2019-02-12T03:28:46.304Z,2.70
2019-02-12T03:31:14.853Z,2.60
2019-02-12T03:33:43.470Z,2.60
2019-02-12T03:36:12.037Z,2.60
2019-02-12T03:38:40.646Z,2.60
2019-02-12T03:41:09.204Z,2.50
2019-02-12T03:43:37.822Z,2.40
2019-02-12T03:46:06.376Z,2.40
2019-02-12T03:48:35.061Z,2.20
2019-02-12T03:51:03.624Z,2.30
2019-02-12T03:53:32.229Z,2.30
2019-02-12T03:56:00.863Z,2.30
2019-02-12T03:58:29.537Z,2.30
2019-02-12T04:00:58.241Z,2.20
2019-02-12T04:03:27.397Z,2.00
2019-02-12T04:05:55.948Z,2.00
2019-02-12T04:08:24.555Z,2.00
2019-02-12T04:10:53.184Z,2.20
2019-02-12T04:13:21.806Z,2.20
2019-02-12T04:15:50.361Z,2.10
2019-02-12T04:18:18.983Z,2.20
2019-02-12T04:20:47.540Z,2.20
2019-02-12T04:23:16.153Z,2.10
2019-02-12T04:25:44.712Z,2.10
2019-02-12T04:28:14.403Z,2.10
2019-02-12T04:30:42.957Z,2.10
2019-02-12T04:33:11.609Z,2.00
2019-02-12T04:35:40.158Z,1.90
2019-02-12T04:38:08.771Z,1.90
2019-02-12T04:40:37.325Z,1.90
2019-02-12T04:43:05.884Z,1.90
2019-02-12T04:45:34.509Z,2.00
2019-02-12T04:48:03.068Z,2.10
2019-02-12T04:50:31.676Z,2.00
2019-02-12T04:53:00.237Z,2.00
2019-02-12T04:55:28.848Z,2.10
2019-02-12T04:57:57.456Z,2.20
2019-02-12T05:00:26.091Z,2.20
2019-02-12T05:02:54.706Z,2.20
2019-02-12T05:05:23.399Z,2.20
2019-02-12T05:07:51.966Z,2.20
2019-02-12T05:10:35.490Z,2.20
2019-02-12T05:13:04.074Z,2.10
2019-02-12T05:15:32.637Z,2.00
2019-02-12T05:18:02.456Z,2.00
2019-02-12T05:20:31.012Z,2.10
2019-02-12T05:22:59.613Z,2.00
2019-02-12T05:25:28.180Z,1.80
2019-02-12T05:27:56.786Z,1.90
2019-02-12T05:30:25.346Z,2.00
2019-02-12T05:32:53.956Z,2.00
2019-02-12T05:35:22.520Z,2.00
2019-02-12T05:37:51.128Z,2.10
2019-02-12T05:40:19.684Z,2.20
2019-02-12T05:42:51.095Z,2.10
2019-02-12T05:45:19.657Z,2.00
2019-02-12T05:47:48.221Z,2.00
2019-02-12T05:50:17.968Z,1.80
2019-02-12T05:52:54.611Z,1.70
2019-02-12T05:55:18.903Z,1.90
2019-02-12T05:57:47.467Z,2.00
2019-02-12T06:00:21.318Z,2.10
2019-02-12T06:02:49.883Z,2.00
2019-02-12T06:05:26.420Z,1.90
2019-02-12T06:07:55.065Z,2.00
2019-02-12T06:10:23.704Z,2.10
2019-02-12T06:12:52.264Z,2.10
2019-02-12T06:15:20.890Z,2.10
2019-02-12T06:17:49.452Z,2.10
2019-02-12T06:20:18.060Z,2.10
2019-02-12T06:22:46.628Z,2.00
2019-02-12T06:25:15.246Z,2.10
2019-02-12T06:27:43.795Z,2.00
2019-02-12T06:30:12.536Z,2.00
2019-02-12T06:32:41.105Z,2.00
2019-02-12T06:35:10.337Z,2.00
2019-02-12T06:37:38.926Z,2.10
2019-02-12T06:40:13.350Z,2.20
2019-02-12T06:42:42.023Z,2.20
2019-02-12T06:45:14.125Z,2.00
2019-02-12T06:47:42.679Z,2.10
2019-02-12T06:50:13.390Z,2.10
2019-02-12T06:52:41.948Z,2.20
2019-02-12T06:55:11.618Z,2.20
2019-02-12T06:57:40.246Z,2.20
2019-02-12T07:00:11.767Z,2.30
2019-02-12T07:03:11.774Z,2.30
2019-02-12T07:05:46.340Z,2.30
2019-02-12T07:08:41.917Z,2.20
2019-02-12T07:11:22.340Z,2.20
2019-02-12T07:14:24.119Z,2.30
2019-02-12T07:17:13.440Z,2.30
2019-02-12T07:19:53.760Z,2.40
2019-02-12T07:22:34.086Z,2.40
2019-02-12T07:25:11.552Z,2.30
2019-02-12T07:27:48.896Z,2.30
2019-02-12T07:30:37.084Z,2.40
2019-02-12T07:33:20.368Z,2.50
2019-02-12T07:36:11.286Z,2.50
2019-02-12T07:38:48.475Z,2.60
2019-02-12T07:41:36.627Z,2.60
2019-02-12T07:44:23.331Z,2.60
2019-02-12T07:47:16.713Z,2.60
2019-02-12T07:50:08.557Z,2.60
2019-02-12T07:52:46.091Z,2.70
2019-02-12T07:55:47.818Z,2.70
2019-02-12T07:58:25.472Z,2.80
2019-02-12T08:01:15.229Z,2.80
2019-02-12T08:04:03.409Z,2.90
2019-02-12T08:06:53.064Z,2.90
2019-02-12T08:09:36.268Z,3.00
2019-02-12T08:12:13.466Z,3.00
2019-02-12T08:14:56.672Z,3.10
2019-02-12T08:17:43.691Z,3.10
2019-02-12T08:20:42.341Z,3.30
2019-02-12T08:23:19.957Z,3.40
2019-02-12T08:25:55.504Z,3.60
2019-02-12T08:28:33.207Z,3.80
2019-02-12T08:31:07.760Z,3.90
2019-02-12T08:34:04.597Z,3.80
2019-02-12T08:36:56.897Z,3.70
2019-02-12T08:39:46.440Z,3.80
2019-02-12T08:42:20.753Z,3.90
2019-02-12T08:45:02.655Z,3.90
2019-02-12T08:47:59.771Z,3.90
2019-02-12T08:50:31.417Z,3.90
2019-02-12T08:53:03.104Z,3.90
2019-02-12T08:56:07.467Z,3.90
2019-02-12T08:59:08.940Z,4.00
2019-02-12T09:01:52.305Z,4.10
2019-02-12T09:04:36.788Z,4.20
2019-02-12T09:07:23.496Z,4.30
2019-02-12T09:10:10.888Z,4.30
2019-02-12T09:12:57.812Z,4.30
2019-02-12T09:15:38.508Z,4.30
2019-02-12T09:18:41.717Z,4.40
2019-02-12T09:21:13.360Z,4.40
2019-02-12T09:24:03.448Z,4.50
2019-02-12T09:26:47.213Z,4.40
2019-02-12T09:29:35.389Z,4.40
2019-02-12T09:32:07.024Z,4.40
2019-02-12T09:34:47.542Z,4.40
2019-02-12T09:37:50.394Z,4.50
2019-02-12T09:40:30.627Z,4.60
2019-02-12T09:43:05.212Z,4.60
2019-02-12T09:45:49.177Z,4.70
2019-02-12T09:48:37.716Z,4.70
2019-02-12T09:51:18.368Z,4.80
2019-02-12T09:53:57.360Z,4.80
2019-02-12T09:56:29.060Z,4.90
2019-02-12T09:59:06.581Z,5.10
2019-02-12T10:01:59.654Z,5.20
2019-02-12T10:04:43.355Z,5.50
2019-02-12T10:07:29.937Z,5.60
2019-02-12T10:10:07.460Z,5.70
2019-02-12T10:12:39.076Z,5.70
2019-02-12T10:15:27.048Z,5.90
2019-02-12T10:18:10.304Z,6.10
2019-02-12T10:20:44.624Z,6.30
2019-02-12T10:23:37.240Z,6.30
2019-02-12T10:26:08.878Z,6.30
2019-02-12T10:28:59.062Z,6.30
2019-02-12T10:31:28.524Z,6.40
2019-02-12T10:33:57.808Z,6.50
2019-02-12T10:36:27.818Z,6.60
2019-02-12T10:38:56.651Z,6.70
2019-02-12T10:41:25.272Z,6.90
2019-02-12T10:43:53.886Z,7.10
2019-02-12T10:46:22.446Z,7.10
2019-02-12T10:48:52.701Z,7.00
2019-02-12T10:51:21.336Z,7.20
2019-02-12T10:53:49.921Z,7.30
2019-02-12T10:56:18.480Z,7.40
2019-02-12T10:58:47.121Z,7.50
2019-02-12T11:01:15.963Z,7.50
2019-02-12T11:03:44.685Z,7.50
2019-02-12T11:06:13.348Z,7.50
2019-02-12T11:08:41.984Z,7.30
2019-02-12T11:11:10.610Z,7.20
2019-02-12T11:13:39.175Z,7.30
2019-02-12T11:16:07.769Z,7.20
2019-02-12T11:18:36.326Z,7.20
2019-02-12T11:21:11.757Z,7.00
2019-02-12T11:23:35.596Z,7.00
2019-02-12T11:26:04.260Z,7.20
2019-02-12T11:28:32.828Z,7.50
2019-02-12T11:31:01.715Z,7.70
2019-02-12T11:33:30.340Z,7.80
2019-02-12T11:35:59.016Z,8.10
2019-02-12T11:38:27.573Z,8.30
2019-02-12T11:40:56.164Z,8.40
2019-02-12T11:43:24.733Z,8.50
2019-02-12T11:45:53.332Z,8.60
2019-02-12T11:48:21.945Z,8.70
2019-02-12T11:50:50.585Z,8.60
2019-02-12T11:53:19.479Z,8.60
2019-02-12T11:55:49.005Z,8.60
2019-02-12T11:58:17.564Z,8.40
2019-02-12T12:00:47.816Z,8.00
2019-02-12T12:03:16.579Z,7.90
2019-02-12T12:05:45.199Z,7.90
2019-02-12T12:08:13.778Z,7.80
2019-02-12T12:10:42.382Z,7.80
2019-02-12T12:13:10.940Z,7.90
2019-02-12T12:15:39.540Z,8.10
2019-02-12T12:18:08.102Z,8.40
2019-02-12T12:20:36.776Z,8.60
2019-02-12T12:23:05.417Z,8.80
2019-02-12T12:25:34.009Z,8.80
2019-02-12T12:28:02.558Z,8.70
2019-02-12T12:30:31.222Z,8.80
2019-02-12T12:32:59.774Z,8.90
2019-02-12T12:35:28.297Z,8.90
2019-02-12T12:37:56.856Z,8.90
2019-02-12T12:40:25.452Z,9.00
2019-02-12T12:42:54.138Z,9.10
2019-02-12T12:45:22.800Z,8.80
2019-02-12T12:47:51.362Z,8.80
2019-02-12T12:50:19.970Z,8.50
2019-02-12T12:52:48.516Z,8.50
2019-02-12T12:55:17.616Z,8.50
2019-02-12T12:57:46.177Z,8.60
2019-02-12T13:00:16.495Z,8.60
2019-02-12T13:02:46.938Z,8.70
2019-02-12T13:05:15.551Z,8.60
2019-02-12T13:07:44.108Z,8.50
2019-02-12T13:10:16.878Z,8.40
2019-02-12T13:12:45.501Z,8.20
2019-02-12T13:15:15.138Z,8.20
2019-02-12T13:17:43.692Z,8.20
2019-02-12T13:20:17.531Z,8.20
2019-02-12T13:22:46.158Z,8.20
2019-02-12T13:25:14.779Z,8.30
2019-02-12T13:27:43.376Z,8.30
2019-02-12T13:30:14.572Z,8.50
2019-02-12T13:32:43.164Z,8.50
2019-02-12T13:35:12.357Z,8.50
2019-02-12T13:37:41.099Z,8.40
2019-02-12T13:40:13.308Z,8.30
2019-02-12T13:42:42.044Z,8.30
2019-02-12T13:45:15.309Z,8.30
2019-02-12T13:47:44.000Z,8.30
2019-02-12T13:50:13.302Z,8.20
2019-02-12T13:52:42.077Z,8.30
2019-02-12T13:55:17.283Z,8.40
2019-02-12T13:57:41.961Z,8.40
2019-02-12T14:00:17.729Z,8.30
2019-02-12T14:02:46.408Z,8.40
2019-02-12T14:05:23.082Z,8.40
2019-02-12T14:07:51.779Z,8.30
2019-02-12T14:10:20.409Z,8.20
2019-02-12T14:12:49.016Z,8.20
2019-02-12T14:15:17.945Z,8.00
2019-02-12T14:17:46.599Z,8.20
2019-02-12T14:20:18.340Z,8.20
2019-02-12T14:22:47.035Z,8.10
2019-02-12T14:25:16.433Z,8.00
2019-02-12T14:27:45.211Z,7.90
2019-02-12T14:30:21.532Z,7.90
2019-02-12T14:32:50.401Z,7.90
2019-02-12T14:35:19.194Z,7.80
2019-02-12T14:37:47.817Z,7.90
2019-02-12T14:40:16.813Z,7.90
2019-02-12T14:42:45.446Z,7.90
2019-02-12T14:45:16.205Z,8.00
2019-02-12T14:47:44.827Z,8.00
2019-02-12T14:50:17.888Z,7.90
2019-02-12T14:52:46.505Z,7.90
2019-02-12T14:55:15.067Z,7.80
2019-02-12T14:57:43.684Z,7.80
2019-02-12T15:00:19.792Z,7.80
2019-02-12T15:02:48.475Z,7.80
2019-02-12T15:05:17.158Z,7.70
2019-02-12T15:07:45.894Z,7.60
2019-02-12T15:10:15.305Z,7.60
2019-02-12T15:12:43.909Z,7.60
2019-02-12T15:15:12.911Z,7.60
2019-02-12T15:17:41.601Z,7.60
2019-02-12T15:20:11.515Z,7.50
2019-02-12T15:22:40.195Z,7.60
2019-02-12T15:25:12.739Z,7.50
2019-02-12T15:27:41.467Z,7.60
2019-02-12T15:30:17.115Z,7.70
2019-02-12T15:32:45.744Z,7.70
2019-02-12T15:35:14.538Z,7.70
2019-02-12T15:37:43.149Z,7.70
2019-02-12T15:40:14.008Z,7.60
2019-02-12T15:42:43.177Z,7.50
2019-02-12T15:45:14.280Z,7.50
2019-02-12T15:47:42.955Z,7.50
2019-02-12T15:50:11.961Z,7.50
2019-02-12T15:52:40.605Z,7.50
2019-02-12T15:55:13.136Z,7.50
2019-02-12T15:57:45.173Z,7.40
2019-02-12T16:00:20.305Z,7.40
2019-02-12T16:02:48.478Z,7.40
2019-02-12T16:05:17.177Z,7.30
2019-02-12T16:07:47.451Z,7.30
2019-02-12T16:10:19.660Z,7.30
2019-02-12T16:12:49.480Z,7.20
2019-02-12T16:15:23.847Z,7.10
2019-02-12T16:17:50.968Z,7.00
2019-02-12T16:20:19.529Z,6.90
2019-02-12T16:22:48.216Z,7.00
2019-02-12T16:25:16.775Z,6.90
2019-02-12T16:27:45.475Z,6.90
2019-02-12T16:30:21.636Z,6.90
2019-02-12T16:32:50.339Z,6.70
2019-02-12T16:35:19.051Z,6.70
2019-02-12T16:37:47.812Z,6.70
2019-02-12T16:40:19.102Z,6.60
2019-02-12T16:42:47.865Z,6.60
2019-02-12T16:45:37.516Z,6.50
2019-02-12T16:48:06.213Z,6.50
2019-02-12T16:50:34.780Z,6.50
2019-02-12T16:53:03.412Z,6.40
2019-02-12T16:55:31.964Z,6.30
2019-02-12T16:58:00.593Z,6.30
2019-02-12T17:00:29.152Z,6.20
2019-02-12T17:02:57.780Z,6.20
2019-02-12T17:05:26.348Z,6.20
2019-02-12T17:07:54.975Z,6.10
2019-02-12T17:10:23.637Z,6.10
2019-02-12T17:12:52.271Z,6.20
2019-02-12T17:15:20.829Z,6.10
2019-02-12T17:17:49.392Z,6.00
2019-02-12T17:20:24.616Z,6.00
2019-02-12T17:22:53.427Z,6.00
2019-02-12T17:25:22.048Z,5.80
2019-02-12T17:27:50.676Z,5.90
2019-02-12T17:30:19.444Z,5.80
2019-02-12T17:32:48.093Z,5.70
2019-02-12T17:35:16.724Z,5.60
2019-02-12T17:37:45.280Z,5.60
2019-02-12T17:40:18.179Z,5.50
2019-02-12T17:42:46.733Z,5.50
2019-02-12T17:45:16.900Z,5.40
2019-02-12T17:47:45.532Z,5.30
2019-02-12T17:50:14.791Z,5.20
2019-02-12T17:52:43.416Z,5.00
2019-02-12T17:55:12.337Z,4.90
2019-02-12T17:57:40.836Z,4.90
2019-02-12T18:00:18.916Z,4.70
2019-02-12T18:02:47.474Z,4.70
2019-02-12T18:05:16.163Z,4.60
2019-02-12T18:07:44.795Z,4.70
2019-02-12T18:10:13.559Z,4.70
2019-02-12T18:12:42.180Z,4.70
2019-02-12T18:15:14.416Z,4.60
2019-02-12T18:17:43.040Z,4.50
2019-02-12T18:20:14.081Z,4.40
2019-02-12T18:22:42.632Z,4.30
2019-02-12T18:25:11.508Z,4.20
2019-02-12T18:27:40.901Z,4.30
2019-02-12T18:30:14.343Z,4.20
2019-02-12T18:32:43.027Z,4.10
2019-02-12T18:35:11.660Z,4.10
2019-02-12T18:37:40.287Z,4.00
2019-02-12T18:40:13.289Z,4.00
2019-02-12T18:42:41.910Z,3.90
2019-02-12T18:45:15.417Z,4.00
2019-02-12T18:47:43.968Z,4.00
2019-02-12T18:50:12.971Z,3.90
2019-02-12T18:52:41.661Z,3.90
2019-02-12T18:55:13.123Z,3.80
2019-02-12T18:57:41.754Z,3.70
2019-02-12T19:00:13.624Z,3.80
2019-02-12T19:02:42.250Z,3.70
2019-02-12T19:05:11.420Z,3.50
2019-02-12T19:07:39.970Z,3.50
2019-02-12T19:10:11.949Z,3.40
2019-02-12T19:12:40.502Z,3.40
2019-02-12T19:15:22.670Z,3.40
2019-02-12T19:17:59.984Z,3.40
2019-02-12T19:20:28.612Z,3.40
2019-02-12T19:22:57.181Z,3.20
2019-02-12T19:25:26.648Z,3.00
2019-02-12T19:27:55.203Z,3.00
2019-02-12T19:30:23.913Z,2.90
2019-02-12T19:32:52.463Z,2.80
2019-02-12T19:35:21.175Z,2.80
2019-02-12T19:37:49.737Z,2.80
2019-02-12T19:40:18.455Z,2.60
2019-02-12T19:42:47.017Z,2.50
2019-02-12T19:45:17.287Z,2.50
2019-02-12T19:47:45.854Z,2.50
2019-02-12T19:50:14.544Z,2.40
2019-02-12T19:52:43.182Z,2.40
2019-02-12T19:55:11.964Z,2.40
2019-02-12T19:57:40.510Z,2.40
2019-02-12T20:00:15.944Z,2.40
2019-02-12T20:02:44.489Z,2.40
2019-02-12T20:05:13.340Z,2.30
2019-02-12T20:07:41.909Z,2.20
2019-02-12T20:10:11.998Z,2.10
2019-02-12T20:12:40.560Z,2.20
2019-02-12T20:15:11.729Z,2.20
2019-02-12T20:17:40.290Z,2.20
2019-02-12T20:20:10.959Z,2.20
2019-02-12T20:22:39.659Z,2.20
2019-02-12T20:25:09.832Z,2.20
2019-02-12T20:27:38.396Z,2.30
2019-02-12T20:30:17.825Z,2.20
2019-02-12T20:32:46.641Z,2.10
2019-02-12T20:35:20.160Z,2.00
2019-02-12T20:37:48.791Z,1.80
2019-02-12T20:40:17.420Z,1.80
2019-02-12T20:42:46.052Z,1.80
2019-02-12T20:45:18.788Z,1.80
2019-02-12T20:47:47.356Z,1.70
2019-02-12T20:50:19.895Z,1.70
2019-02-12T20:52:48.462Z,1.80
2019-02-12T20:55:17.085Z,1.80
2019-02-12T20:57:45.719Z,1.90
2019-02-12T21:00:22.044Z,1.90
2019-02-12T21:02:50.602Z,2.00
2019-02-12T21:05:19.237Z,2.00
2019-02-12T21:07:47.871Z,1.80
2019-02-12T21:10:18.472Z,1.70
2019-02-12T21:12:47.175Z,1.70
2019-02-12T21:15:23.786Z,1.70
2019-02-12T21:17:52.415Z,1.70
2019-02-12T21:20:21.044Z,1.70
2019-02-12T21:22:49.674Z,1.70
2019-02-12T21:25:18.232Z,1.70
2019-02-12T21:27:46.872Z,1.60
2019-02-12T21:30:23.834Z,1.60
2019-02-12T21:32:52.520Z,1.60
2019-02-12T21:35:21.076Z,1.50
2019-02-12T21:37:49.780Z,1.60
2019-02-12T21:40:20.775Z,1.60
2019-02-12T21:42:49.539Z,1.60
2019-02-12T21:45:18.165Z,1.40
2019-02-12T21:47:46.843Z,1.40
2019-02-12T21:50:15.469Z,1.30
2019-02-12T21:52:44.157Z,1.30
2019-02-12T21:55:15.419Z,1.30
2019-02-12T21:57:44.103Z,1.40
2019-02-12T22:00:17.168Z,1.40
2019-02-12T22:02:45.852Z,1.40
2019-02-12T22:05:16.416Z,1.50
2019-02-12T22:07:45.161Z,1.50
2019-02-12T22:10:16.525Z,1.60
2019-02-12T22:12:45.132Z,1.50
2019-02-12T22:15:13.758Z,1.50
2019-02-12T22:17:42.786Z,1.50
2019-02-12T22:20:13.288Z,1.40
2019-02-12T22:22:41.884Z,1.50
2019-02-12T22:25:11.081Z,1.40
2019-02-12T22:27:40.689Z,1.20
2019-02-12T22:30:12.480Z,1.20
2019-02-12T22:32:41.081Z,1.30
2019-02-12T22:35:09.703Z,1.30
2019-02-12T22:37:38.310Z,1.30
2019-02-12T22:40:09.803Z,1.30
2019-02-12T22:42:38.404Z,1.30
2019-02-12T22:45:21.681Z,1.30
2019-02-12T22:47:50.337Z,1.30
2019-02-12T22:50:18.896Z,1.30
2019-02-12T22:52:47.495Z,1.20
2019-02-12T22:55:16.132Z,1.10
2019-02-12T22:57:49.304Z,1.10
2019-02-12T23:00:39.332Z,1.10
2019-02-12T23:03:08.571Z,1.10
2019-02-12T23:05:37.205Z,1.10
2019-02-12T23:08:05.943Z,1.20
2019-02-12T23:10:34.504Z,1.10
2019-02-12T23:13:03.105Z,1.10
2019-02-12T23:15:31.737Z,1.20
2019-02-12T23:18:00.335Z,1.10
2019-02-12T23:20:28.900Z,1.20
2019-02-12T23:22:57.504Z,1.10
2019-02-12T23:25:26.059Z,1.10
2019-02-12T23:27:57.601Z,1.10
2019-02-12T23:30:24.865Z,1.00
2019-02-12T23:32:53.479Z,1.10
2019-02-12T23:35:22.040Z,1.20
2019-02-12T23:37:50.649Z,1.10
2019-02-12T23:40:19.204Z,1.10
2019-02-12T23:42:47.812Z,0.90
2019-02-12T23:45:16.372Z,0.90
2019-02-12T23:47:44.978Z,0.90
2019-02-12T23:50:13.912Z,0.90
2019-02-12T23:52:42.652Z,0.90
2019-02-12T23:55:11.213Z,0.90
2019-02-12T23:57:39.816Z,0.80
